createdAt,value
2018-07-12T00:01:54.466Z,23.12
2018-07-12T00:03:56.688Z,23.07
2018-07-12T00:05:59.191Z,22.70
2018-07-12T00:08:01.608Z,23.02
2018-07-12T00:10:04.658Z,23.32
2018-07-12T00:12:10.435Z,23.56
2018-07-12T00:14:14.334Z,23.08
2018-07-12T00:16:17.378Z,23.37
2018-07-12T00:18:23.445Z,23.39
2018-07-12T00:20:25.743Z,23.54
2018-07-12T00:22:27.970Z,22.82
2018-07-12T00:24:30.538Z,22.99
2018-07-12T00:26:33.623Z,23.38
2018-07-12T00:28:36.125Z,23.35
2018-07-12T00:30:38.603Z,23.39
2018-07-12T00:32:41.151Z,23.20
2018-07-12T00:34:43.549Z,23.29
2018-07-12T00:36:45.788Z,23.52
2018-07-12T00:38:48.130Z,23.11
2018-07-12T00:40:50.362Z,23.53
2018-07-12T00:42:52.719Z,23.51
2018-07-12T00:44:56.190Z,23.15
2018-07-12T00:46:58.515Z,23.21
2018-07-12T00:49:00.862Z,23.39
2018-07-12T00:51:06.510Z,23.20
2018-07-12T00:53:08.864Z,23.17
2018-07-12T00:55:13.236Z,23.04
2018-07-12T00:57:17.480Z,23.58
2018-07-12T00:59:22.561Z,23.43
2018-07-12T01:01:26.819Z,23.23
2018-07-12T01:03:29.270Z,23.49
2018-07-12T01:05:31.497Z,23.14
2018-07-12T01:07:33.739Z,23.35
2018-07-12T01:09:36.277Z,22.63
2018-07-12T01:11:38.511Z,22.71
2018-07-12T01:13:41.531Z,22.64
2018-07-12T01:15:44.031Z,22.54
2018-07-12T01:17:46.280Z,22.68
2018-07-12T01:19:48.632Z,22.73
2018-07-12T01:21:51.114Z,22.45
2018-07-12T01:23:53.406Z,22.29
2018-07-12T01:25:55.597Z,22.40
2018-07-12T01:27:57.836Z,22.57
2018-07-12T01:30:00.120Z,22.79
2018-07-12T01:32:02.572Z,22.11
2018-07-12T01:34:07.187Z,22.33
2018-07-12T01:36:12.708Z,22.24
2018-07-12T01:38:16.355Z,22.23
2018-07-12T01:40:20.842Z,21.82
2018-07-12T01:42:24.087Z,22.01
2018-07-12T01:44:26.366Z,22.10
2018-07-12T01:46:28.589Z,22.26
2018-07-12T01:48:30.901Z,21.93
2018-07-12T01:50:33.397Z,22.28
2018-07-12T01:52:35.773Z,22.79
2018-07-12T01:54:38.406Z,22.93
2018-07-12T01:56:40.766Z,23.02
2018-07-12T01:58:43.147Z,23.09
2018-07-12T02:00:46.130Z,22.27
2018-07-12T02:02:48.366Z,22.76
2018-07-12T02:04:50.569Z,22.42
2018-07-12T02:06:52.923Z,22.54
2018-07-12T02:08:55.160Z,22.57
2018-07-12T02:10:57.388Z,22.67
2018-07-12T02:12:59.783Z,22.87
2018-07-12T02:15:02.356Z,22.82
2018-07-12T02:17:06.530Z,22.89
2018-07-12T02:19:12.196Z,22.39
2018-07-12T02:21:17.311Z,22.47
2018-07-12T02:23:20.613Z,22.65
2018-07-12T02:25:23.407Z,22.65
2018-07-12T02:27:25.606Z,22.81
2018-07-12T02:29:27.897Z,22.96
2018-07-12T02:31:30.720Z,22.78
2018-07-12T02:33:33.046Z,22.45
2018-07-12T02:35:35.267Z,22.51
2018-07-12T02:37:37.762Z,22.39
2018-07-12T02:39:40.245Z,22.04
2018-07-12T02:41:43.040Z,21.92
2018-07-12T02:43:45.805Z,22.24
2018-07-12T02:45:48.154Z,22.45
2018-07-12T02:47:50.650Z,22.53
2018-07-12T02:49:53.142Z,23.05
2018-07-12T02:51:55.403Z,22.88
2018-07-12T02:53:57.628Z,23.00
2018-07-12T02:56:00.192Z,22.57
2018-07-12T02:58:02.486Z,22.59
2018-07-12T03:00:05.634Z,22.70
2018-07-12T03:02:10.885Z,23.03
2018-07-12T03:04:14.423Z,23.02
2018-07-12T03:06:17.947Z,23.04
2018-07-12T03:08:22.400Z,23.35
2018-07-12T03:10:24.636Z,23.30
2018-07-12T03:12:26.863Z,23.04
2018-07-12T03:14:29.418Z,23.07
2018-07-12T03:16:31.794Z,23.45
2018-07-12T03:18:34.201Z,23.46
2018-07-12T03:20:36.450Z,23.41
2018-07-12T03:22:38.970Z,22.98
2018-07-12T03:24:41.183Z,23.21
2018-07-12T03:26:43.386Z,23.46
2018-07-12T03:28:46.085Z,23.22
2018-07-12T03:30:48.317Z,23.27
2018-07-12T03:32:50.650Z,23.04
2018-07-12T03:34:53.197Z,23.08
2018-07-12T03:36:55.433Z,22.80
2018-07-12T03:38:57.828Z,23.04
2018-07-12T03:41:00.590Z,23.11
2018-07-12T03:43:02.922Z,23.26
2018-07-12T03:45:06.418Z,22.91
2018-07-12T03:47:11.955Z,23.35
2018-07-12T03:49:15.888Z,23.28
2018-07-12T03:51:20.669Z,23.17
2018-07-12T03:53:24.455Z,23.34
2018-07-12T03:55:26.815Z,22.69
2018-07-12T03:57:29.187Z,23.10
2018-07-12T03:59:31.882Z,23.28
2018-07-12T04:01:34.155Z,23.10
2018-07-12T04:03:36.419Z,23.35
2018-07-12T04:05:38.664Z,23.06
2018-07-12T04:07:41.352Z,22.99
2018-07-12T04:09:43.606Z,23.15
2018-07-12T04:11:45.841Z,23.05
2018-07-12T04:13:48.071Z,23.13
2018-07-12T04:15:50.526Z,23.29
2018-07-12T04:17:52.764Z,23.22
2018-07-12T04:19:55.189Z,23.19
2018-07-12T04:21:57.867Z,22.94
2018-07-12T04:24:00.194Z,23.39
2018-07-12T04:26:02.541Z,23.31
2018-07-12T04:28:06.342Z,23.36
2018-07-12T04:30:11.736Z,23.12
2018-07-12T04:32:15.832Z,23.42
2018-07-12T04:34:19.441Z,23.56
2018-07-12T04:36:25.201Z,23.59
2018-07-12T04:38:28.081Z,23.64
2018-07-12T04:40:30.307Z,23.23
2018-07-12T04:42:32.858Z,23.36
2018-07-12T04:44:35.237Z,23.42
2018-07-12T04:46:37.622Z,22.96
2018-07-12T04:48:40.369Z,23.11
2018-07-12T04:50:42.650Z,23.08
2018-07-12T04:52:45.070Z,23.17
2018-07-12T04:54:47.517Z,23.28
2018-07-12T04:56:50.398Z,23.32
2018-07-12T04:58:52.661Z,22.91
2018-07-12T05:00:55.162Z,23.12
2018-07-12T05:02:57.672Z,23.04
2018-07-12T05:04:59.930Z,23.22
2018-07-12T05:07:02.185Z,23.51
2018-07-12T05:09:08.171Z,23.12
2018-07-12T05:11:12.059Z,23.41
2018-07-12T05:13:15.994Z,23.23
2018-07-12T05:15:19.894Z,23.29
2018-07-12T05:17:23.240Z,23.26
2018-07-12T05:19:25.520Z,23.53
2018-07-12T05:21:28.833Z,23.49
2018-07-12T05:23:31.091Z,23.52
2018-07-12T05:25:33.413Z,23.54
2018-07-12T05:27:36.404Z,23.26
2018-07-12T05:29:39.271Z,23.67
2018-07-12T05:31:41.709Z,23.48
2018-07-12T05:33:44.224Z,23.36
2018-07-12T05:35:48.163Z,23.82
2018-07-12T05:37:52.012Z,23.24
2018-07-12T05:39:56.563Z,23.27
2018-07-12T05:42:00.707Z,23.58
2018-07-12T05:44:05.011Z,23.54
2018-07-12T05:46:13.568Z,23.90
2018-07-12T05:48:20.552Z,23.44
2018-07-12T05:50:25.595Z,23.90
2018-07-12T05:52:29.843Z,23.66
2018-07-12T05:54:33.760Z,24.14
2018-07-12T05:56:37.280Z,23.96
2018-07-12T05:58:41.819Z,24.13
2018-07-12T06:00:45.419Z,24.04
2018-07-12T06:02:48.979Z,24.05
2018-07-12T06:04:53.428Z,24.05
2018-07-12T06:06:57.001Z,24.18
2018-07-12T06:09:01.016Z,24.06
2018-07-12T06:11:05.643Z,24.01
2018-07-12T06:13:11.728Z,23.99
2018-07-12T06:15:17.000Z,23.98
2018-07-12T06:17:23.569Z,24.15
2018-07-12T06:19:27.597Z,24.07
2018-07-12T06:21:31.357Z,24.34
2018-07-12T06:23:35.253Z,24.27
2018-07-12T06:25:39.041Z,24.10
2018-07-12T06:27:43.096Z,24.49
2018-07-12T06:29:47.086Z,24.41
2018-07-12T06:31:51.406Z,24.42
2018-07-12T06:33:55.493Z,24.53
2018-07-12T06:35:59.312Z,24.30
2018-07-12T06:38:03.045Z,24.56
2018-07-12T06:40:09.393Z,24.56
2018-07-12T06:42:16.091Z,24.67
2018-07-12T06:44:23.777Z,24.46
2018-07-12T06:46:28.178Z,24.27
2018-07-12T06:48:32.717Z,24.29
2018-07-12T06:50:36.225Z,24.27
2018-07-12T06:52:39.972Z,24.41
2018-07-12T06:54:43.863Z,24.54
2018-07-12T06:56:47.872Z,24.66
2018-07-12T06:58:52.371Z,24.60
2018-07-12T07:00:56.002Z,24.48
2018-07-12T07:02:59.787Z,24.49
2018-07-12T07:05:03.428Z,24.16
2018-07-12T07:07:08.542Z,24.56
2018-07-12T07:09:14.924Z,24.30
2018-07-12T07:11:22.825Z,24.57
2018-07-12T07:13:26.838Z,24.54
2018-07-12T07:15:30.726Z,24.21
2018-07-12T07:17:34.443Z,24.42
2018-07-12T07:19:38.538Z,24.67
2018-07-12T07:21:42.229Z,24.69
2018-07-12T07:23:45.959Z,24.78
2018-07-12T07:25:49.996Z,24.68
2018-07-12T07:27:53.666Z,25.04
2018-07-12T07:29:57.260Z,25.21
2018-07-12T07:32:01.338Z,25.33
2018-07-12T07:34:05.151Z,25.28
2018-07-12T07:36:12.045Z,25.00
2018-07-12T07:38:17.021Z,24.96
2018-07-12T07:40:25.496Z,24.88
2018-07-12T07:42:29.909Z,24.88
2018-07-12T07:44:34.073Z,25.01
2018-07-12T07:46:37.607Z,25.24
2018-07-12T07:48:41.121Z,25.13
2018-07-12T07:50:45.752Z,25.10
2018-07-12T07:52:49.465Z,25.17
2018-07-12T07:54:53.292Z,25.12
2018-07-12T07:56:57.379Z,25.20
2018-07-12T07:59:00.942Z,25.40
2018-07-12T08:01:07.165Z,25.43
2018-07-12T08:03:14.993Z,25.17
2018-07-12T08:05:23.364Z,25.15
2018-07-12T08:07:27.036Z,25.44
2018-07-12T08:09:31.091Z,25.18
2018-07-12T08:11:34.792Z,25.23
2018-07-12T08:13:38.406Z,25.60
2018-07-12T08:15:42.457Z,25.84
2018-07-12T08:17:46.634Z,25.83
2018-07-12T08:19:50.830Z,25.85
2018-07-12T08:22:07.399Z,25.69
2018-07-12T08:24:13.928Z,25.57
2018-07-12T08:26:20.728Z,25.37
2018-07-12T08:28:27.050Z,25.37
2018-07-12T08:30:31.377Z,25.20
2018-07-12T08:32:35.510Z,25.44
2018-07-12T08:34:39.537Z,25.58
2018-07-12T08:36:43.354Z,25.66
2018-07-12T08:38:47.441Z,25.26
2018-07-12T08:40:51.898Z,25.41
2018-07-12T08:42:55.942Z,25.16
2018-07-12T08:45:00.020Z,25.45
2018-07-12T08:47:04.654Z,25.81
2018-07-12T08:49:11.183Z,25.69
2018-07-12T08:51:16.917Z,25.67
2018-07-12T08:53:21.631Z,26.05
2018-07-12T08:55:25.638Z,25.74
2018-07-12T08:57:29.886Z,25.95
2018-07-12T08:59:34.136Z,25.90
2018-07-12T09:01:45.586Z,25.67
2018-07-12T09:03:49.355Z,25.64
2018-07-12T09:05:53.146Z,25.69
2018-07-12T09:07:56.739Z,25.76
2018-07-12T09:10:00.366Z,25.63
2018-07-12T09:12:04.849Z,25.75
2018-07-12T09:14:12.447Z,25.74
2018-07-12T09:16:18.456Z,25.63
2018-07-12T09:18:24.236Z,25.87
2018-07-12T09:20:28.684Z,25.64
2018-07-12T09:22:32.684Z,25.65
2018-07-12T09:24:36.472Z,25.91
2018-07-12T09:26:40.194Z,25.88
2018-07-12T09:28:43.752Z,25.88
2018-07-12T09:30:52.391Z,26.03
2018-07-12T09:32:56.533Z,25.84
2018-07-12T09:35:00.691Z,26.15
2018-07-12T09:37:04.547Z,26.34
2018-07-12T09:39:10.993Z,26.29
2018-07-12T09:41:16.047Z,26.24
2018-07-12T09:43:21.544Z,26.31
2018-07-12T09:45:25.681Z,26.40
2018-07-12T09:47:29.708Z,26.47
2018-07-12T09:49:33.452Z,26.41
2018-07-12T09:51:37.049Z,26.52
2018-07-12T09:53:43.011Z,26.51
2018-07-12T09:55:48.760Z,26.26
2018-07-12T09:58:04.060Z,26.12
2018-07-12T10:00:10.237Z,26.17
2018-07-12T10:02:23.109Z,26.26
2018-07-12T10:04:28.131Z,26.49
2018-07-12T10:06:33.789Z,26.36
2018-07-12T10:08:42.841Z,26.36
2018-07-12T10:10:52.279Z,26.42
2018-07-12T10:13:01.422Z,26.35
2018-07-12T10:15:12.456Z,26.56
2018-07-12T10:17:22.356Z,26.68
2018-07-12T10:19:27.192Z,26.38
2018-07-12T10:21:30.928Z,26.59
2018-07-12T10:23:38.001Z,26.72
2018-07-12T10:25:41.958Z,26.80
2018-07-12T10:27:45.985Z,27.10
2018-07-12T10:29:50.379Z,27.02
2018-07-12T10:31:56.895Z,26.97
2018-07-12T10:34:00.831Z,27.00
2018-07-12T10:36:31.275Z,26.84
2018-07-12T10:38:35.104Z,26.72
2018-07-12T10:40:38.941Z,27.01
2018-07-12T10:42:43.073Z,27.11
2018-07-12T10:44:46.935Z,27.26
2018-07-12T10:46:50.471Z,27.03
2018-07-12T10:48:54.359Z,27.09
2018-07-12T10:50:57.981Z,27.13
2018-07-12T10:53:01.970Z,27.22
2018-07-12T10:55:07.195Z,27.15
2018-07-12T10:57:14.333Z,27.20
2018-07-12T10:59:22.426Z,27.23
2018-07-12T11:01:26.603Z,27.32
2018-07-12T11:03:31.520Z,27.47
2018-07-12T11:05:37.563Z,27.39
2018-07-12T11:07:48.296Z,27.44
2018-07-12T11:09:57.192Z,27.49
2018-07-12T11:12:01.457Z,27.56
2018-07-12T11:14:07.230Z,27.43
2018-07-12T11:16:15.315Z,27.48
2018-07-12T11:18:23.278Z,27.39
2018-07-12T11:20:27.414Z,27.60
2018-07-12T11:22:38.322Z,27.63
2018-07-12T11:24:42.487Z,27.65
2018-07-12T11:26:46.634Z,27.69
2018-07-12T11:28:50.340Z,27.60
2018-07-12T11:30:53.889Z,27.46
2018-07-12T11:32:58.451Z,27.32
2018-07-12T11:35:02.771Z,27.25
2018-07-12T11:37:10.787Z,27.06
2018-07-12T11:39:16.570Z,27.10
2018-07-12T11:41:25.601Z,27.20
2018-07-12T11:43:29.624Z,27.10
2018-07-12T11:45:33.638Z,27.00
2018-07-12T11:47:37.435Z,26.92
2018-07-12T11:49:40.997Z,26.95
2018-07-12T11:51:44.933Z,26.89
2018-07-12T11:53:48.606Z,26.90
2018-07-12T11:55:52.462Z,26.89
2018-07-12T11:57:57.105Z,26.86
2018-07-12T12:00:00.832Z,26.77
2018-07-12T12:02:05.194Z,26.82
2018-07-12T12:04:13.421Z,26.87
2018-07-12T12:06:19.944Z,26.82
2018-07-12T12:08:25.017Z,26.69
2018-07-12T12:10:29.173Z,26.63
2018-07-12T12:12:33.049Z,26.69
2018-07-12T12:14:36.833Z,26.72
2018-07-12T12:16:40.976Z,26.67
2018-07-12T12:18:45.128Z,26.73
2018-07-12T12:20:48.816Z,26.57
2018-07-12T12:22:52.468Z,26.61
2018-07-12T12:24:57.256Z,26.72
2018-07-12T12:27:01.292Z,26.64
2018-07-12T12:29:06.301Z,26.62
2018-07-12T12:31:13.536Z,26.71
2018-07-12T12:33:20.572Z,26.70
2018-07-12T12:35:27.116Z,26.85
2018-07-12T12:37:31.356Z,27.03
2018-07-12T12:39:34.980Z,27.19
2018-07-12T12:41:39.105Z,28.25
2018-07-12T12:43:42.933Z,27.51
2018-07-12T12:45:46.606Z,29.00
2018-07-12T12:47:50.217Z,31.15
2018-07-12T12:49:54.184Z,32.65
2018-07-12T12:51:57.809Z,33.50
2018-07-12T12:54:01.776Z,33.60
2018-07-12T12:56:06.472Z,34.09
2018-07-12T12:58:18.333Z,34.35
2018-07-12T13:00:23.319Z,34.66
2018-07-12T13:02:27.261Z,35.14
2018-07-12T13:04:30.844Z,32.44
2018-07-12T13:06:34.643Z,31.53
2018-07-12T13:08:38.183Z,29.51
2018-07-12T13:10:42.021Z,29.00
2018-07-12T13:12:45.825Z,28.75
2018-07-12T13:14:49.688Z,28.65
2018-07-12T13:16:53.233Z,28.63
2018-07-12T13:18:57.308Z,28.74
2018-07-12T13:21:00.948Z,28.52
2018-07-12T13:23:05.095Z,28.35
2018-07-12T13:25:12.287Z,28.12
2018-07-12T13:27:18.298Z,27.96
2018-07-12T13:29:23.462Z,27.89
2018-07-12T13:31:27.302Z,27.81
2018-07-12T13:33:30.935Z,27.76
2018-07-12T13:35:34.666Z,27.69
2018-07-12T13:37:38.270Z,27.48
2018-07-12T13:39:41.964Z,27.45
2018-07-12T13:41:45.869Z,27.42
2018-07-12T13:43:55.355Z,27.51
2018-07-12T13:46:00.246Z,27.46
2018-07-12T13:48:05.049Z,27.48
2018-07-12T13:50:11.274Z,27.45
2018-07-12T13:52:18.097Z,27.47
2018-07-12T13:54:23.251Z,27.52
2018-07-12T13:56:27.152Z,27.52
2018-07-12T13:58:31.343Z,27.50
2018-07-12T14:00:35.025Z,27.54
2018-07-12T14:02:39.100Z,27.51
2018-07-12T14:04:42.914Z,27.63
2018-07-12T14:06:46.757Z,27.77
2018-07-12T14:08:51.534Z,28.05
2018-07-12T14:10:55.450Z,28.10
2018-07-12T14:12:59.386Z,28.01
2018-07-12T14:15:04.902Z,27.98
2018-07-12T14:17:12.734Z,27.92
2018-07-12T14:19:19.020Z,28.06
2018-07-12T14:21:23.999Z,28.45
2018-07-12T14:23:27.866Z,28.56
2018-07-12T14:25:31.723Z,28.46
2018-07-12T14:27:35.918Z,28.46
2018-07-12T14:29:39.546Z,28.48
2018-07-12T14:31:44.962Z,28.69
2018-07-12T14:33:49.298Z,28.79
2018-07-12T14:35:53.098Z,29.30
2018-07-12T14:37:58.111Z,29.34
2018-07-12T14:40:02.177Z,29.29
2018-07-12T14:42:06.911Z,29.19
2018-07-12T14:44:14.320Z,29.21
2018-07-12T14:46:22.266Z,29.34
2018-07-12T14:48:25.939Z,29.26
2018-07-12T14:50:29.966Z,29.32
2018-07-12T14:52:33.972Z,29.26
2018-07-12T14:54:42.318Z,29.07
2018-07-12T14:56:46.031Z,28.98
2018-07-12T14:58:50.856Z,28.87
2018-07-12T15:00:54.679Z,28.82
2018-07-12T15:02:58.891Z,28.71
2018-07-12T15:05:04.624Z,28.58
2018-07-12T15:07:12.028Z,28.39
2018-07-12T15:09:17.558Z,28.20
2018-07-12T15:11:25.994Z,27.96
2018-07-12T15:13:29.738Z,27.86
2018-07-12T15:15:33.339Z,27.74
2018-07-12T15:17:37.398Z,27.73
2018-07-12T15:19:40.995Z,27.60
2018-07-12T15:21:45.473Z,27.37
2018-07-12T15:23:49.121Z,27.39
2018-07-12T15:25:52.909Z,27.29
2018-07-12T15:27:56.988Z,27.12
2018-07-12T15:30:00.787Z,27.14
2018-07-12T15:32:05.093Z,27.21
2018-07-12T15:34:12.530Z,27.06
2018-07-12T15:36:18.986Z,27.11
2018-07-12T15:38:31.206Z,27.06
2018-07-12T15:40:35.455Z,27.15
2018-07-12T15:42:39.458Z,26.83
2018-07-12T15:44:49.192Z,26.80
2018-07-12T15:46:54.986Z,26.80
2018-07-12T15:49:02.009Z,26.77
2018-07-12T15:51:08.440Z,26.78
2018-07-12T15:53:23.512Z,26.81
2018-07-12T15:55:32.291Z,26.82
2018-07-12T15:57:41.096Z,26.78
2018-07-12T15:59:46.147Z,26.58
2018-07-12T16:01:52.034Z,26.79
2018-07-12T16:04:01.913Z,26.65
2018-07-12T16:06:09.460Z,26.69
2018-07-12T16:08:20.613Z,26.54
2018-07-12T16:10:27.699Z,26.54
2018-07-12T16:12:35.047Z,26.59
2018-07-12T16:14:41.149Z,26.56
2018-07-12T16:16:46.338Z,26.52
2018-07-12T16:18:54.813Z,26.45
2018-07-12T16:20:59.045Z,26.39
2018-07-12T16:23:04.617Z,26.46
2018-07-12T16:25:09.969Z,26.61
2018-07-12T16:27:17.514Z,26.72
2018-07-12T16:29:26.165Z,26.65
2018-07-12T16:31:31.863Z,26.48
2018-07-12T16:33:38.551Z,26.54
2018-07-12T16:35:43.428Z,26.60
2018-07-12T16:37:47.166Z,26.59
2018-07-12T16:39:52.003Z,26.60
2018-07-12T16:41:56.554Z,26.45
2018-07-12T16:44:00.535Z,26.49
2018-07-12T16:46:07.528Z,26.48
2018-07-12T16:48:18.362Z,26.61
2018-07-12T16:50:24.787Z,26.51
2018-07-12T16:52:29.441Z,26.44
2018-07-12T16:54:34.536Z,26.53
2018-07-12T16:56:38.989Z,26.53
2018-07-12T16:58:46.989Z,26.41
2018-07-12T17:00:52.436Z,26.21
2018-07-12T17:02:58.149Z,26.36
2018-07-12T17:05:04.252Z,26.19
2018-07-12T17:07:09.849Z,26.34
2018-07-12T17:09:15.993Z,26.37
2018-07-12T17:11:23.324Z,26.47
2018-07-12T17:13:26.903Z,26.35
2018-07-12T17:15:30.788Z,26.46
2018-07-12T17:17:34.705Z,26.51
2018-07-12T17:19:39.218Z,26.32
2018-07-12T17:21:44.222Z,26.36
2018-07-12T17:23:48.318Z,26.51
2018-07-12T17:25:52.340Z,26.38
2018-07-12T17:27:57.191Z,26.33
2018-07-12T17:30:02.213Z,26.47
2018-07-12T17:32:06.220Z,26.30
2018-07-12T17:34:15.462Z,26.28
2018-07-12T17:36:21.461Z,26.41
2018-07-12T17:38:27.095Z,26.39
2018-07-12T17:40:30.666Z,26.49
2018-07-12T17:42:36.073Z,26.41
2018-07-12T17:44:39.983Z,26.30
2018-07-12T17:46:44.507Z,26.33
2018-07-12T17:48:48.422Z,26.22
2018-07-12T17:50:52.128Z,26.15
2018-07-12T17:52:55.849Z,26.23
2018-07-12T17:54:59.477Z,26.29
2018-07-12T17:57:04.296Z,26.22
2018-07-12T17:59:13.328Z,26.18
2018-07-12T18:01:18.716Z,26.17
2018-07-12T18:03:25.313Z,26.25
2018-07-12T18:05:32.184Z,26.27
2018-07-12T18:07:36.109Z,26.14
2018-07-12T18:09:40.047Z,25.89
2018-07-12T18:11:43.705Z,26.00
2018-07-12T18:13:47.787Z,25.94
2018-07-12T18:15:52.654Z,25.75
2018-07-12T18:17:56.395Z,25.81
2018-07-12T18:20:00.746Z,25.82
2018-07-12T18:22:07.005Z,25.73
2018-07-12T18:24:17.373Z,25.58
2018-07-12T18:26:25.019Z,25.59
2018-07-12T18:28:35.222Z,25.49
2018-07-12T18:30:41.184Z,25.55
2018-07-12T18:32:46.532Z,25.67
2018-07-12T18:34:59.332Z,25.45
2018-07-12T18:37:07.350Z,25.43
2018-07-12T18:39:17.697Z,25.55
2018-07-12T18:41:35.226Z,25.59
2018-07-12T18:43:39.429Z,25.59
2018-07-12T18:45:51.757Z,25.25
2018-07-12T18:47:55.763Z,25.53
2018-07-12T18:50:01.870Z,25.62
2018-07-12T18:52:10.961Z,25.43
2018-07-12T18:54:19.011Z,25.28
2018-07-12T18:56:24.777Z,25.34
2018-07-12T18:58:29.991Z,25.29
2018-07-12T19:00:34.328Z,25.38
2018-07-12T19:02:41.897Z,25.23
2018-07-12T19:04:46.783Z,25.31
2018-07-12T19:06:51.672Z,25.38
2018-07-12T19:08:57.845Z,25.33
2018-07-12T19:11:04.226Z,25.29
2018-07-12T19:13:13.384Z,25.44
2018-07-12T19:15:20.695Z,25.45
2018-07-12T19:17:32.491Z,25.54
2018-07-12T19:19:38.037Z,25.33
2018-07-12T19:21:43.653Z,25.45
2018-07-12T19:23:49.668Z,25.35
2018-07-12T19:25:53.877Z,25.40
2018-07-12T19:27:59.404Z,25.41
2018-07-12T19:30:03.353Z,25.52
2018-07-12T19:32:11.796Z,25.50
2018-07-12T19:34:20.182Z,25.30
2018-07-12T19:36:25.937Z,25.41
2018-07-12T19:38:30.028Z,25.25
2018-07-12T19:40:35.088Z,25.22
2018-07-12T19:42:41.839Z,25.13
2018-07-12T19:44:47.299Z,25.25
2018-07-12T19:46:53.744Z,25.21
2018-07-12T19:49:01.078Z,25.04
2018-07-12T19:51:07.317Z,25.24
2018-07-12T19:53:15.880Z,25.19
2018-07-12T19:55:20.810Z,25.29
2018-07-12T19:57:27.527Z,25.24
2018-07-12T19:59:34.147Z,25.29
2018-07-12T20:01:38.665Z,25.25
2018-07-12T20:03:44.753Z,25.37
2018-07-12T20:05:49.746Z,25.34
2018-07-12T20:07:55.935Z,25.12
2018-07-12T20:10:01.052Z,25.21
2018-07-12T20:12:07.137Z,25.27
2018-07-12T20:14:14.150Z,25.22
2018-07-12T20:16:20.692Z,25.27
2018-07-12T20:18:24.677Z,25.33
2018-07-12T20:20:28.538Z,25.14
2018-07-12T20:22:32.332Z,25.12
2018-07-12T20:24:36.099Z,25.25
2018-07-12T20:26:40.879Z,25.26
2018-07-12T20:28:44.543Z,25.23
2018-07-12T20:30:49.514Z,25.18
2018-07-12T20:32:54.452Z,25.25
2018-07-12T20:34:59.003Z,25.17
2018-07-12T20:37:03.029Z,25.23
2018-07-12T20:39:11.224Z,25.26
2018-07-12T20:41:17.947Z,25.13
2018-07-12T20:43:23.885Z,25.21
2018-07-12T20:45:28.329Z,25.18
2018-07-12T20:47:31.885Z,25.21
2018-07-12T20:49:35.485Z,25.29
2018-07-12T20:51:39.507Z,25.14
2018-07-12T20:53:43.163Z,25.20
2018-07-12T20:55:48.963Z,25.15
2018-07-12T20:57:53.281Z,25.19
2018-07-12T20:59:56.909Z,25.22
2018-07-12T21:02:00.783Z,25.23
2018-07-12T21:04:05.941Z,25.11
2018-07-12T21:06:12.975Z,25.14
2018-07-12T21:08:19.587Z,25.19
2018-07-12T21:10:24.017Z,25.05
2018-07-12T21:12:27.684Z,25.10
2018-07-12T21:14:31.400Z,25.11
2018-07-12T21:16:35.358Z,25.23
2018-07-12T21:18:39.862Z,25.08
2018-07-12T21:20:44.720Z,25.10
2018-07-12T21:22:49.042Z,24.98
2018-07-12T21:24:53.353Z,24.98
2018-07-12T21:26:56.977Z,24.98
2018-07-12T21:29:01.946Z,25.04
2018-07-12T21:31:06.275Z,25.06
2018-07-12T21:33:14.198Z,25.08
2018-07-12T21:35:22.746Z,25.14
2018-07-12T21:37:27.602Z,25.07
2018-07-12T21:39:31.440Z,25.04
2018-07-12T21:41:35.459Z,25.03
2018-07-12T21:43:39.248Z,25.12
2018-07-12T21:45:43.278Z,25.21
2018-07-12T21:47:47.458Z,25.19
2018-07-12T21:49:52.307Z,25.12
2018-07-12T21:51:56.066Z,25.17
2018-07-12T21:54:01.174Z,25.14
2018-07-12T21:56:08.277Z,25.17
2018-07-12T21:58:15.330Z,25.05
2018-07-12T22:00:26.159Z,25.08
2018-07-12T22:02:33.521Z,25.16
2018-07-12T22:04:39.307Z,24.86
2018-07-12T22:06:55.176Z,24.95
2018-07-12T22:08:59.685Z,25.02
2018-07-12T22:11:06.779Z,25.00
2018-07-12T22:13:16.601Z,24.87
2018-07-12T22:15:23.195Z,24.70
2018-07-12T22:17:29.859Z,24.74
2018-07-12T22:19:35.070Z,24.82
2018-07-12T22:21:40.333Z,24.45
2018-07-12T22:23:44.558Z,24.64
2018-07-12T22:25:48.267Z,24.63
2018-07-12T22:27:52.680Z,24.61
2018-07-12T22:29:56.633Z,24.53
2018-07-12T22:32:00.575Z,24.56
2018-07-12T22:34:05.664Z,24.65
2018-07-12T22:36:13.278Z,24.59
2018-07-12T22:38:19.011Z,24.42
2018-07-12T22:40:25.061Z,24.41
2018-07-12T22:42:29.459Z,24.64
2018-07-12T22:44:34.037Z,24.31
2018-07-12T22:46:37.607Z,24.39
2018-07-12T22:48:41.579Z,24.41
2018-07-12T22:50:49.437Z,24.17
2018-07-12T22:52:53.260Z,24.15
2018-07-12T22:54:56.997Z,24.35
2018-07-12T22:57:01.378Z,24.58
2018-07-12T22:59:05.710Z,24.42
2018-07-12T23:01:12.949Z,24.68
2018-07-12T23:03:19.551Z,24.68
2018-07-12T23:05:24.348Z,24.70
2018-07-12T23:07:28.073Z,24.89
2018-07-12T23:09:32.002Z,24.89
2018-07-12T23:11:35.534Z,24.87
2018-07-12T23:13:39.167Z,24.86
2018-07-12T23:15:44.228Z,24.74
2018-07-12T23:17:48.341Z,24.75
2018-07-12T23:19:51.974Z,24.62
2018-07-12T23:21:55.952Z,24.78
2018-07-12T23:24:01.059Z,24.93
2018-07-12T23:26:05.520Z,24.95
2018-07-12T23:28:12.695Z,24.67
2018-07-12T23:30:19.304Z,24.79
2018-07-12T23:32:23.724Z,24.82
2018-07-12T23:35:08.317Z,24.72
2018-07-12T23:37:16.388Z,24.78
2018-07-12T23:39:21.843Z,24.72
2018-07-12T23:41:25.711Z,24.76
2018-07-12T23:43:30.242Z,24.88
2018-07-12T23:45:33.855Z,24.91
2018-07-12T23:47:37.683Z,24.90
2018-07-12T23:49:41.230Z,24.66
2018-07-12T23:51:45.365Z,24.18
2018-07-12T23:53:50.598Z,24.06
2018-07-12T23:55:54.245Z,24.02
2018-07-12T23:57:58.072Z,23.74
